sensor_id;sensor_type;location;lat;lon;timestamp;P1;durP1;ratioP1;P2;durP2;ratioP2
12798;SDS011;19250;42.646;26.980;2022-09-27T00:01:23;9.25;;;8.43;;
12798;SDS011;19250;42.646;26.980;2022-09-27T00:03:51;9.57;;;8.77;;
12798;SDS011;19250;42.646;26.980;2022-09-27T00:06:22;9.25;;;8.45;;
12798;SDS011;19250;42.646;26.980;2022-09-27T00:08:51;9.65;;;8.95;;
12798;SDS011;19250;42.646;26.980;2022-09-27T00:11:20;10.02;;;9.20;;
12798;SDS011;19250;42.646;26.980;2022-09-27T00:13:52;10.13;;;9.32;;
12798;SDS011;19250;42.646;26.980;2022-09-27T00:16:19;10.43;;;9.55;;
12798;SDS011;19250;42.646;26.980;2022-09-27T00:18:49;10.90;;;10.00;;
12798;SDS011;19250;42.646;26.980;2022-09-27T00:21:16;9.82;;;8.98;;
12798;SDS011;19250;42.646;26.980;2022-09-27T00:23:44;9.80;;;8.50;;
12798;SDS011;19250;42.646;26.980;2022-09-27T00:26:12;9.00;;;8.20;;
12798;SDS011;19250;42.646;26.980;2022-09-27T00:28:39;9.30;;;8.57;;
12798;SDS011;19250;42.646;26.980;2022-09-27T00:31:13;9.80;;;8.82;;
12798;SDS011;19250;42.646;26.980;2022-09-27T00:33:46;10.30;;;9.37;;
12798;SDS011;19250;42.646;26.980;2022-09-27T00:36:15;10.00;;;9.20;;
12798;SDS011;19250;42.646;26.980;2022-09-27T00:38:43;10.40;;;9.60;;
12798;SDS011;19250;42.646;26.980;2022-09-27T00:41:11;10.60;;;9.60;;
12798;SDS011;19250;42.646;26.980;2022-09-27T00:43:45;10.02;;;9.13;;
12798;SDS011;19250;42.646;26.980;2022-09-27T00:46:17;9.80;;;8.90;;
12798;SDS011;19250;42.646;26.980;2022-09-27T00:48:58;9.57;;;8.80;;
12798;SDS011;19250;42.646;26.980;2022-09-27T00:51:31;9.40;;;8.60;;
12798;SDS011;19250;42.646;26.980;2022-09-27T00:54:00;9.73;;;8.82;;
12798;SDS011;19250;42.646;26.980;2022-09-27T00:56:29;9.53;;;8.53;;
12798;SDS011;19250;42.646;26.980;2022-09-27T00:58:58;9.95;;;9.13;;
12798;SDS011;19250;42.646;26.980;2022-09-27T01:01:32;9.80;;;8.90;;
12798;SDS011;19250;42.646;26.980;2022-09-27T01:04:02;10.38;;;9.38;;
12798;SDS011;19250;42.646;26.980;2022-09-27T01:06:34;10.77;;;9.80;;
12798;SDS011;19250;42.646;26.980;2022-09-27T01:09:02;10.27;;;9.38;;
12798;SDS011;19250;42.646;26.980;2022-09-27T01:11:38;9.82;;;8.82;;
12798;SDS011;19250;42.646;26.980;2022-09-27T01:14:21;10.00;;;9.20;;
12798;SDS011;19250;42.646;26.980;2022-09-27T01:17:00;10.00;;;9.10;;
12798;SDS011;19250;42.646;26.980;2022-09-27T01:22:47;9.05;;;8.27;;
12798;SDS011;19250;42.646;26.980;2022-09-27T01:25:33;9.47;;;8.77;;
12798;SDS011;19250;42.646;26.980;2022-09-27T01:28:20;9.20;;;8.30;;
12798;SDS011;19250;42.646;26.980;2022-09-27T01:30:59;8.68;;;7.57;;
12798;SDS011;19250;42.646;26.980;2022-09-27T01:33:41;8.00;;;7.30;;
12798;SDS011;19250;42.646;26.980;2022-09-27T01:36:17;7.93;;;7.22;;
12798;SDS011;19250;42.646;26.980;2022-09-27T01:38:55;8.48;;;7.68;;
12798;SDS011;19250;42.646;26.980;2022-09-27T01:41:32;7.83;;;7.23;;
12798;SDS011;19250;42.646;26.980;2022-09-27T01:44:04;8.07;;;7.40;;
12798;SDS011;19250;42.646;26.980;2022-09-27T01:46:38;7.55;;;6.95;;
12798;SDS011;19250;42.646;26.980;2022-09-27T01:49:11;7.78;;;7.13;;
12798;SDS011;19250;42.646;26.980;2022-09-27T01:51:42;7.28;;;6.60;;
12798;SDS011;19250;42.646;26.980;2022-09-27T01:54:14;7.20;;;6.63;;
12798;SDS011;19250;42.646;26.980;2022-09-27T01:56:47;7.15;;;6.55;;
12798;SDS011;19250;42.646;26.980;2022-09-27T01:59:19;7.60;;;7.00;;
12798;SDS011;19250;42.646;26.980;2022-09-27T02:01:51;7.80;;;7.10;;
12798;SDS011;19250;42.646;26.980;2022-09-27T02:04:22;8.40;;;7.55;;
12798;SDS011;19250;42.646;26.980;2022-09-27T02:06:53;8.63;;;7.72;;
12798;SDS011;19250;42.646;26.980;2022-09-27T02:09:25;8.43;;;7.63;;
12798;SDS011;19250;42.646;26.980;2022-09-27T02:11:57;8.80;;;7.95;;
12798;SDS011;19250;42.646;26.980;2022-09-27T02:14:29;9.30;;;8.40;;
12798;SDS011;19250;42.646;26.980;2022-09-27T02:17:06;8.90;;;8.20;;
12798;SDS011;19250;42.646;26.980;2022-09-27T02:19:40;8.95;;;8.18;;
12798;SDS011;19250;42.646;26.980;2022-09-27T02:22:17;8.95;;;8.05;;
12798;SDS011;19250;42.646;26.980;2022-09-27T02:24:53;7.80;;;7.13;;
12798;SDS011;19250;42.646;26.980;2022-09-27T02:27:26;8.27;;;7.47;;
12798;SDS011;19250;42.646;26.980;2022-09-27T02:29:57;8.30;;;7.15;;
12798;SDS011;19250;42.646;26.980;2022-09-27T02:32:28;8.15;;;7.45;;
12798;SDS011;19250;42.646;26.980;2022-09-27T02:34:57;7.68;;;7.07;;
12798;SDS011;19250;42.646;26.980;2022-09-27T02:37:27;7.57;;;6.85;;
12798;SDS011;19250;42.646;26.980;2022-09-27T02:39:55;7.75;;;7.05;;
12798;SDS011;19250;42.646;26.980;2022-09-27T02:42:23;7.55;;;6.95;;
12798;SDS011;19250;42.646;26.980;2022-09-27T02:44:52;7.70;;;6.90;;
12798;SDS011;19250;42.646;26.980;2022-09-27T02:47:26;7.50;;;6.70;;
12798;SDS011;19250;42.646;26.980;2022-09-27T02:50:08;8.05;;;7.07;;
12798;SDS011;19250;42.646;26.980;2022-09-27T02:52:55;7.85;;;7.05;;
12798;SDS011;19250;42.646;26.980;2022-09-27T02:55:36;7.28;;;6.60;;
12798;SDS011;19250;42.646;26.980;2022-09-27T02:58:15;7.82;;;7.03;;
12798;SDS011;19250;42.646;26.980;2022-09-27T03:00:51;7.75;;;6.97;;
12798;SDS011;19250;42.646;26.980;2022-09-27T03:03:32;7.55;;;6.85;;
12798;SDS011;19250;42.646;26.980;2022-09-27T03:06:05;7.80;;;7.10;;
12798;SDS011;19250;42.646;26.980;2022-09-27T03:08:36;8.20;;;7.50;;
12798;SDS011;19250;42.646;26.980;2022-09-27T03:11:03;7.78;;;7.18;;
12798;SDS011;19250;42.646;26.980;2022-09-27T03:13:31;8.10;;;7.40;;
12798;SDS011;19250;42.646;26.980;2022-09-27T03:15:59;8.90;;;8.00;;
12798;SDS011;19250;42.646;26.980;2022-09-27T03:18:26;10.90;;;9.90;;
12798;SDS011;19250;42.646;26.980;2022-09-27T03:20:54;11.65;;;10.63;;
12798;SDS011;19250;42.646;26.980;2022-09-27T03:23:22;12.75;;;11.60;;
12798;SDS011;19250;42.646;26.980;2022-09-27T03:25:49;13.10;;;11.65;;
12798;SDS011;19250;42.646;26.980;2022-09-27T03:28:16;14.68;;;12.25;;
12798;SDS011;19250;42.646;26.980;2022-09-27T03:30:44;13.98;;;12.88;;
12798;SDS011;19250;42.646;26.980;2022-09-27T03:33:12;13.48;;;12.18;;
12798;SDS011;19250;42.646;26.980;2022-09-27T03:35:40;14.02;;;12.73;;
12798;SDS011;19250;42.646;26.980;2022-09-27T03:38:09;15.20;;;13.80;;
12798;SDS011;19250;42.646;26.980;2022-09-27T03:40:37;11.27;;;10.13;;
12798;SDS011;19250;42.646;26.980;2022-09-27T03:43:04;8.65;;;7.85;;
12798;SDS011;19250;42.646;26.980;2022-09-27T03:45:31;8.40;;;7.35;;
12798;SDS011;19250;42.646;26.980;2022-09-27T03:47:58;8.23;;;7.28;;
12798;SDS011;19250;42.646;26.980;2022-09-27T03:50:25;8.75;;;7.45;;
12798;SDS011;19250;42.646;26.980;2022-09-27T03:52:53;8.10;;;7.30;;
12798;SDS011;19250;42.646;26.980;2022-09-27T03:55:21;8.45;;;7.32;;
12798;SDS011;19250;42.646;26.980;2022-09-27T03:57:49;8.30;;;7.13;;
12798;SDS011;19250;42.646;26.980;2022-09-27T04:00:16;10.05;;;8.05;;
12798;SDS011;19250;42.646;26.980;2022-09-27T04:02:43;7.88;;;7.18;;
12798;SDS011;19250;42.646;26.980;2022-09-27T04:05:11;9.70;;;8.43;;
12798;SDS011;19250;42.646;26.980;2022-09-27T04:07:38;10.80;;;9.10;;
12798;SDS011;19250;42.646;26.980;2022-09-27T04:10:05;8.97;;;8.03;;
12798;SDS011;19250;42.646;26.980;2022-09-27T04:12:37;8.80;;;8.00;;
12798;SDS011;19250;42.646;26.980;2022-09-27T04:15:05;8.60;;;7.75;;
12798;SDS011;19250;42.646;26.980;2022-09-27T04:17:33;9.75;;;8.05;;
12798;SDS011;19250;42.646;26.980;2022-09-27T04:20:01;8.23;;;7.50;;
12798;SDS011;19250;42.646;26.980;2022-09-27T04:22:29;8.60;;;7.70;;
12798;SDS011;19250;42.646;26.980;2022-09-27T04:24:56;8.48;;;7.68;;
12798;SDS011;19250;42.646;26.980;2022-09-27T04:27:24;8.57;;;7.78;;
12798;SDS011;19250;42.646;26.980;2022-09-27T04:29:52;9.65;;;8.60;;
12798;SDS011;19250;42.646;26.980;2022-09-27T04:32:20;9.05;;;8.15;;
12798;SDS011;19250;42.646;26.980;2022-09-27T04:34:47;12.43;;;11.13;;
12798;SDS011;19250;42.646;26.980;2022-09-27T04:37:31;17.35;;;12.20;;
12798;SDS011;19250;42.646;26.980;2022-09-27T04:40:00;14.27;;;12.63;;
12798;SDS011;19250;42.646;26.980;2022-09-27T04:42:27;13.85;;;12.43;;
12798;SDS011;19250;42.646;26.980;2022-09-27T04:44:55;18.00;;;13.32;;
12798;SDS011;19250;42.646;26.980;2022-09-27T04:47:23;15.32;;;12.82;;
12798;SDS011;19250;42.646;26.980;2022-09-27T04:49:50;16.90;;;13.00;;
12798;SDS011;19250;42.646;26.980;2022-09-27T04:52:17;16.38;;;12.48;;
12798;SDS011;19250;42.646;26.980;2022-09-27T04:54:44;14.38;;;12.80;;
12798;SDS011;19250;42.646;26.980;2022-09-27T04:57:12;16.15;;;12.80;;
12798;SDS011;19250;42.646;26.980;2022-09-27T04:59:39;18.00;;;12.25;;
12798;SDS011;19250;42.646;26.980;2022-09-27T05:02:08;14.10;;;12.70;;
12798;SDS011;19250;42.646;26.980;2022-09-27T05:04:36;22.85;;;20.48;;
12798;SDS011;19250;42.646;26.980;2022-09-27T05:07:03;26.17;;;22.83;;
12798;SDS011;19250;42.646;26.980;2022-09-27T05:09:30;19.27;;;17.23;;
12798;SDS011;19250;42.646;26.980;2022-09-27T05:11:57;15.38;;;12.52;;
12798;SDS011;19250;42.646;26.980;2022-09-27T05:14:24;17.70;;;13.40;;
12798;SDS011;19250;42.646;26.980;2022-09-27T05:16:52;16.42;;;11.55;;
12798;SDS011;19250;42.646;26.980;2022-09-27T05:19:21;11.52;;;9.77;;
12798;SDS011;19250;42.646;26.980;2022-09-27T05:21:48;8.68;;;7.57;;
12798;SDS011;19250;42.646;26.980;2022-09-27T05:24:15;7.70;;;6.90;;
12798;SDS011;19250;42.646;26.980;2022-09-27T05:26:42;7.93;;;7.18;;
12798;SDS011;19250;42.646;26.980;2022-09-27T05:29:11;7.80;;;7.00;;
12798;SDS011;19250;42.646;26.980;2022-09-27T05:31:38;7.50;;;6.75;;
12798;SDS011;19250;42.646;26.980;2022-09-27T05:34:05;8.65;;;7.85;;
12798;SDS011;19250;42.646;26.980;2022-09-27T05:36:34;9.32;;;7.72;;
12798;SDS011;19250;42.646;26.980;2022-09-27T05:39:02;11.55;;;7.95;;
12798;SDS011;19250;42.646;26.980;2022-09-27T05:41:30;8.35;;;7.20;;
12798;SDS011;19250;42.646;26.980;2022-09-27T05:43:58;7.55;;;6.75;;
12798;SDS011;19250;42.646;26.980;2022-09-27T05:46:25;7.82;;;7.03;;
12798;SDS011;19250;42.646;26.980;2022-09-27T05:48:52;6.97;;;6.38;;
12798;SDS011;19250;42.646;26.980;2022-09-27T05:51:19;7.10;;;6.40;;
12798;SDS011;19250;42.646;26.980;2022-09-27T05:53:48;8.43;;;7.47;;
12798;SDS011;19250;42.646;26.980;2022-09-27T05:56:15;8.23;;;7.43;;
12798;SDS011;19250;42.646;26.980;2022-09-27T05:58:42;8.27;;;7.15;;
12798;SDS011;19250;42.646;26.980;2022-09-27T06:01:10;8.30;;;7.00;;
12798;SDS011;19250;42.646;26.980;2022-09-27T06:03:37;7.17;;;6.47;;
12798;SDS011;19250;42.646;26.980;2022-09-27T06:06:05;8.80;;;6.25;;
12798;SDS011;19250;42.646;26.980;2022-09-27T06:08:35;7.53;;;6.22;;
12798;SDS011;19250;42.646;26.980;2022-09-27T06:11:06;8.25;;;6.40;;
12798;SDS011;19250;42.646;26.980;2022-09-27T06:13:35;7.78;;;6.63;;
12798;SDS011;19250;42.646;26.980;2022-09-27T06:16:03;8.32;;;6.47;;
12798;SDS011;19250;42.646;26.980;2022-09-27T06:18:32;8.48;;;6.70;;
12798;SDS011;19250;42.646;26.980;2022-09-27T06:20:59;6.90;;;6.40;;
12798;SDS011;19250;42.646;26.980;2022-09-27T06:23:27;8.23;;;6.47;;
12798;SDS011;19250;42.646;26.980;2022-09-27T06:25:59;7.43;;;6.53;;
12798;SDS011;19250;42.646;26.980;2022-09-27T06:28:29;7.43;;;6.67;;
12798;SDS011;19250;42.646;26.980;2022-09-27T06:30:56;8.95;;;7.75;;
12798;SDS011;19250;42.646;26.980;2022-09-27T06:33:25;47.90;;;42.72;;
12798;SDS011;19250;42.646;26.980;2022-09-27T06:35:53;9.70;;;7.30;;
12798;SDS011;19250;42.646;26.980;2022-09-27T06:38:20;7.80;;;7.00;;
12798;SDS011;19250;42.646;26.980;2022-09-27T06:40:49;8.88;;;7.68;;
12798;SDS011;19250;42.646;26.980;2022-09-27T06:43:17;7.43;;;6.50;;
12798;SDS011;19250;42.646;26.980;2022-09-27T06:45:47;11.07;;;7.23;;
12798;SDS011;19250;42.646;26.980;2022-09-27T06:48:14;12.73;;;6.65;;
12798;SDS011;19250;42.646;26.980;2022-09-27T06:50:42;8.17;;;6.67;;
12798;SDS011;19250;42.646;26.980;2022-09-27T06:53:11;7.97;;;5.30;;
12798;SDS011;19250;42.646;26.980;2022-09-27T06:55:39;7.95;;;6.78;;
12798;SDS011;19250;42.646;26.980;2022-09-27T06:58:08;7.85;;;6.00;;
12798;SDS011;19250;42.646;26.980;2022-09-27T07:00:55;8.15;;;6.50;;
12798;SDS011;19250;42.646;26.980;2022-09-27T07:03:22;7.80;;;7.10;;
12798;SDS011;19250;42.646;26.980;2022-09-27T07:05:57;7.50;;;6.60;;
12798;SDS011;19250;42.646;26.980;2022-09-27T07:08:26;7.68;;;6.97;;
12798;SDS011;19250;42.646;26.980;2022-09-27T07:10:54;6.43;;;5.32;;
12798;SDS011;19250;42.646;26.980;2022-09-27T07:13:22;8.00;;;6.43;;
12798;SDS011;19250;42.646;26.980;2022-09-27T07:15:50;7.15;;;6.35;;
12798;SDS011;19250;42.646;26.980;2022-09-27T07:18:19;9.20;;;6.97;;
12798;SDS011;19250;42.646;26.980;2022-09-27T07:20:46;9.75;;;6.82;;
12798;SDS011;19250;42.646;26.980;2022-09-27T07:23:14;9.93;;;6.68;;
12798;SDS011;19250;42.646;26.980;2022-09-27T07:25:42;7.28;;;5.75;;
12798;SDS011;19250;42.646;26.980;2022-09-27T07:28:11;8.52;;;6.57;;
12798;SDS011;19250;42.646;26.980;2022-09-27T07:30:40;7.88;;;5.60;;
12798;SDS011;19250;42.646;26.980;2022-09-27T07:33:09;13.25;;;8.98;;
12798;SDS011;19250;42.646;26.980;2022-09-27T07:35:39;9.88;;;7.13;;
12798;SDS011;19250;42.646;26.980;2022-09-27T07:38:08;9.38;;;5.90;;
12798;SDS011;19250;42.646;26.980;2022-09-27T07:40:37;8.45;;;5.63;;
12798;SDS011;19250;42.646;26.980;2022-09-27T07:43:05;7.83;;;4.97;;
12798;SDS011;19250;42.646;26.980;2022-09-27T07:45:33;7.80;;;5.85;;
12798;SDS011;19250;42.646;26.980;2022-09-27T07:48:03;11.43;;;8.32;;
12798;SDS011;19250;42.646;26.980;2022-09-27T07:50:30;10.93;;;7.18;;
12798;SDS011;19250;42.646;26.980;2022-09-27T07:52:59;9.23;;;6.97;;
12798;SDS011;19250;42.646;26.980;2022-09-27T07:55:26;7.78;;;4.97;;
12798;SDS011;19250;42.646;26.980;2022-09-27T07:58:00;7.38;;;5.43;;
12798;SDS011;19250;42.646;26.980;2022-09-27T08:00:28;9.45;;;5.80;;
12798;SDS011;19250;42.646;26.980;2022-09-27T08:02:55;8.60;;;6.28;;
12798;SDS011;19250;42.646;26.980;2022-09-27T08:05:23;9.48;;;5.38;;
12798;SDS011;19250;42.646;26.980;2022-09-27T08:07:53;7.75;;;5.68;;
12798;SDS011;19250;42.646;26.980;2022-09-27T08:10:23;8.40;;;5.63;;
12798;SDS011;19250;42.646;26.980;2022-09-27T08:12:51;7.15;;;5.40;;
12798;SDS011;19250;42.646;26.980;2022-09-27T08:15:18;8.82;;;5.97;;
12798;SDS011;19250;42.646;26.980;2022-09-27T08:17:46;8.38;;;5.93;;
12798;SDS011;19250;42.646;26.980;2022-09-27T08:20:13;10.43;;;7.05;;
12798;SDS011;19250;42.646;26.980;2022-09-27T08:22:40;11.98;;;7.63;;
12798;SDS011;19250;42.646;26.980;2022-09-27T08:25:08;28.13;;;20.90;;
12798;SDS011;19250;42.646;26.980;2022-09-27T08:27:37;11.10;;;8.37;;
12798;SDS011;19250;42.646;26.980;2022-09-27T08:30:04;6.72;;;6.03;;
12798;SDS011;19250;42.646;26.980;2022-09-27T08:32:32;6.18;;;4.90;;
12798;SDS011;19250;42.646;26.980;2022-09-27T08:35:00;7.25;;;5.50;;
12798;SDS011;19250;42.646;26.980;2022-09-27T08:37:28;5.53;;;4.95;;
12798;SDS011;19250;42.646;26.980;2022-09-27T08:39:55;11.70;;;4.32;;
12798;SDS011;19250;42.646;26.980;2022-09-27T08:42:27;6.72;;;4.40;;
12798;SDS011;19250;42.646;26.980;2022-09-27T08:45:09;6.97;;;4.93;;
12798;SDS011;19250;42.646;26.980;2022-09-27T08:47:43;6.45;;;4.47;;
12798;SDS011;19250;42.646;26.980;2022-09-27T08:50:20;6.63;;;4.80;;
12798;SDS011;19250;42.646;26.980;2022-09-27T08:52:52;12.45;;;9.70;;
12798;SDS011;19250;42.646;26.980;2022-09-27T08:55:24;13.38;;;10.68;;
12798;SDS011;19250;42.646;26.980;2022-09-27T08:57:57;10.57;;;8.88;;
12798;SDS011;19250;42.646;26.980;2022-09-27T09:00:27;8.48;;;5.05;;
12798;SDS011;19250;42.646;26.980;2022-09-27T09:02:56;11.73;;;5.07;;
12798;SDS011;19250;42.646;26.980;2022-09-27T09:05:27;6.45;;;4.35;;
12798;SDS011;19250;42.646;26.980;2022-09-27T09:08:02;8.20;;;4.72;;
12798;SDS011;19250;42.646;26.980;2022-09-27T09:10:48;7.13;;;4.75;;
12798;SDS011;19250;42.646;26.980;2022-09-27T09:13:44;8.70;;;4.93;;
12798;SDS011;19250;42.646;26.980;2022-09-27T09:16:37;8.13;;;5.15;;
12798;SDS011;19250;42.646;26.980;2022-09-27T09:19:21;8.73;;;5.07;;
12798;SDS011;19250;42.646;26.980;2022-09-27T09:22:06;7.07;;;4.70;;
12798;SDS011;19250;42.646;26.980;2022-09-27T09:24:53;6.35;;;4.20;;
12798;SDS011;19250;42.646;26.980;2022-09-27T09:27:32;6.00;;;4.80;;
12798;SDS011;19250;42.646;26.980;2022-09-27T09:30:17;5.82;;;4.32;;
12798;SDS011;19250;42.646;26.980;2022-09-27T09:32:52;9.40;;;4.87;;
12798;SDS011;19250;42.646;26.980;2022-09-27T09:35:30;7.47;;;4.30;;
12798;SDS011;19250;42.646;26.980;2022-09-27T09:38:05;7.18;;;4.47;;
12798;SDS011;19250;42.646;26.980;2022-09-27T09:40:39;9.18;;;4.50;;
12798;SDS011;19250;42.646;26.980;2022-09-27T09:43:11;5.97;;;4.47;;
12798;SDS011;19250;42.646;26.980;2022-09-27T09:45:44;7.60;;;4.65;;
12798;SDS011;19250;42.646;26.980;2022-09-27T09:48:18;5.30;;;4.00;;
12798;SDS011;19250;42.646;26.980;2022-09-27T09:50:55;8.63;;;4.88;;
12798;SDS011;19250;42.646;26.980;2022-09-27T09:53:28;11.75;;;5.28;;
12798;SDS011;19250;42.646;26.980;2022-09-27T09:56:06;6.88;;;4.30;;
12798;SDS011;19250;42.646;26.980;2022-09-27T09:58:40;8.77;;;4.43;;
12798;SDS011;19250;42.646;26.980;2022-09-27T10:01:15;7.97;;;4.30;;
12798;SDS011;19250;42.646;26.980;2022-09-27T10:03:47;6.63;;;3.83;;
12798;SDS011;19250;42.646;26.980;2022-09-27T10:06:15;8.53;;;3.97;;
12798;SDS011;19250;42.646;26.980;2022-09-27T10:08:43;8.10;;;4.20;;
12798;SDS011;19250;42.646;26.980;2022-09-27T10:11:15;7.10;;;4.03;;
12798;SDS011;19250;42.646;26.980;2022-09-27T10:13:46;6.72;;;4.50;;
12798;SDS011;19250;42.646;26.980;2022-09-27T10:16:14;7.40;;;4.20;;
12798;SDS011;19250;42.646;26.980;2022-09-27T10:18:43;7.22;;;3.95;;
12798;SDS011;19250;42.646;26.980;2022-09-27T10:21:16;7.40;;;4.60;;
12798;SDS011;19250;42.646;26.980;2022-09-27T10:24:02;5.50;;;4.05;;
12798;SDS011;19250;42.646;26.980;2022-09-27T10:26:33;7.63;;;4.00;;
12798;SDS011;19250;42.646;26.980;2022-09-27T10:29:13;7.03;;;3.63;;
12798;SDS011;19250;42.646;26.980;2022-09-27T10:31:42;9.20;;;5.38;;
12798;SDS011;19250;42.646;26.980;2022-09-27T10:34:23;6.30;;;5.03;;
12798;SDS011;19250;42.646;26.980;2022-09-27T10:37:06;7.00;;;4.57;;
12798;SDS011;19250;42.646;26.980;2022-09-27T10:39:42;7.77;;;4.67;;
12798;SDS011;19250;42.646;26.980;2022-09-27T10:42:19;8.93;;;4.53;;
12798;SDS011;19250;42.646;26.980;2022-09-27T10:44:48;7.82;;;5.78;;
12798;SDS011;19250;42.646;26.980;2022-09-27T10:47:16;10.50;;;4.80;;
12798;SDS011;19250;42.646;26.980;2022-09-27T10:49:47;9.60;;;4.80;;
12798;SDS011;19250;42.646;26.980;2022-09-27T10:52:18;6.82;;;4.63;;
12798;SDS011;19250;42.646;26.980;2022-09-27T10:54:52;7.03;;;4.70;;
12798;SDS011;19250;42.646;26.980;2022-09-27T10:57:21;8.60;;;4.63;;
12798;SDS011;19250;42.646;26.980;2022-09-27T10:59:51;7.10;;;4.90;;
12798;SDS011;19250;42.646;26.980;2022-09-27T11:02:21;8.27;;;5.10;;
12798;SDS011;19250;42.646;26.980;2022-09-27T11:05:04;7.70;;;4.75;;
12798;SDS011;19250;42.646;26.980;2022-09-27T11:07:46;6.65;;;4.45;;
12798;SDS011;19250;42.646;26.980;2022-09-27T11:10:24;8.10;;;4.55;;
12798;SDS011;19250;42.646;26.980;2022-09-27T11:15:44;6.10;;;4.05;;
12798;SDS011;19250;42.646;26.980;2022-09-27T11:18:20;6.07;;;4.15;;
12798;SDS011;19250;42.646;26.980;2022-09-27T11:20:57;5.97;;;4.33;;
12798;SDS011;19250;42.646;26.980;2022-09-27T11:23:38;8.30;;;4.25;;
12798;SDS011;19250;42.646;26.980;2022-09-27T11:26:21;7.28;;;4.43;;
12798;SDS011;19250;42.646;26.980;2022-09-27T11:29:06;7.45;;;4.53;;
12798;SDS011;19250;42.646;26.980;2022-09-27T11:31:48;5.47;;;4.13;;
12798;SDS011;19250;42.646;26.980;2022-09-27T11:37:25;7.70;;;3.97;;
12798;SDS011;19250;42.646;26.980;2022-09-27T11:43:01;6.43;;;4.10;;
12798;SDS011;19250;42.646;26.980;2022-09-27T11:45:43;5.28;;;4.18;;
12798;SDS011;19250;42.646;26.980;2022-09-27T11:48:22;8.05;;;4.38;;
12798;SDS011;19250;42.646;26.980;2022-09-27T11:51:01;7.82;;;4.32;;
12798;SDS011;19250;42.646;26.980;2022-09-27T11:56:46;6.13;;;3.88;;
12798;SDS011;19250;42.646;26.980;2022-09-27T11:59:28;4.35;;;3.75;;
12798;SDS011;19250;42.646;26.980;2022-09-27T12:02:21;5.50;;;4.25;;
12798;SDS011;19250;42.646;26.980;2022-09-27T12:05:04;8.48;;;4.43;;
12798;SDS011;19250;42.646;26.980;2022-09-27T12:07:42;6.93;;;4.25;;
12798;SDS011;19250;42.646;26.980;2022-09-27T12:10:17;6.85;;;3.80;;
12798;SDS011;19250;42.646;26.980;2022-09-27T12:12:49;7.65;;;4.15;;
12798;SDS011;19250;42.646;26.980;2022-09-27T12:15:19;7.53;;;4.30;;
12798;SDS011;19250;42.646;26.980;2022-09-27T12:17:52;6.90;;;4.20;;
12798;SDS011;19250;42.646;26.980;2022-09-27T12:20:22;5.63;;;4.00;;
12798;SDS011;19250;42.646;26.980;2022-09-27T12:22:56;4.53;;;3.70;;
12798;SDS011;19250;42.646;26.980;2022-09-27T12:25:28;7.72;;;3.92;;
12798;SDS011;19250;42.646;26.980;2022-09-27T12:28:02;6.40;;;3.67;;
12798;SDS011;19250;42.646;26.980;2022-09-27T12:30:36;6.25;;;3.67;;
12798;SDS011;19250;42.646;26.980;2022-09-27T12:33:15;7.85;;;3.92;;
12798;SDS011;19250;42.646;26.980;2022-09-27T12:35:49;5.30;;;3.63;;
12798;SDS011;19250;42.646;26.980;2022-09-27T12:38:20;5.53;;;3.92;;
12798;SDS011;19250;42.646;26.980;2022-09-27T12:40:52;6.55;;;3.70;;
12798;SDS011;19250;42.646;26.980;2022-09-27T12:43:25;8.57;;;3.92;;
12798;SDS011;19250;42.646;26.980;2022-09-27T12:45:58;5.65;;;4.10;;
12798;SDS011;19250;42.646;26.980;2022-09-27T12:48:36;5.18;;;3.60;;
12798;SDS011;19250;42.646;26.980;2022-09-27T12:51:13;6.13;;;3.90;;
12798;SDS011;19250;42.646;26.980;2022-09-27T12:53:46;6.07;;;4.17;;
12798;SDS011;19250;42.646;26.980;2022-09-27T12:56:31;5.93;;;4.00;;
12798;SDS011;19250;42.646;26.980;2022-09-27T12:59:19;7.05;;;3.83;;
12798;SDS011;19250;42.646;26.980;2022-09-27T13:02:15;8.00;;;4.70;;
12798;SDS011;19250;42.646;26.980;2022-09-27T13:05:10;7.85;;;4.28;;
12798;SDS011;19250;42.646;26.980;2022-09-27T13:08:08;8.18;;;4.22;;
12798;SDS011;19250;42.646;26.980;2022-09-27T13:10:52;6.83;;;4.00;;
12798;SDS011;19250;42.646;26.980;2022-09-27T13:13:29;7.93;;;3.60;;
12798;SDS011;19250;42.646;26.980;2022-09-27T13:15:59;6.68;;;3.55;;
12798;SDS011;19250;42.646;26.980;2022-09-27T13:18:29;7.78;;;3.65;;
12798;SDS011;19250;42.646;26.980;2022-09-27T13:33:21;5.20;;;3.72;;
12798;SDS011;19250;42.646;26.980;2022-09-27T13:36:24;6.95;;;3.35;;
12798;SDS011;19250;42.646;26.980;2022-09-27T13:41:57;10.07;;;3.40;;
12798;SDS011;19250;42.646;26.980;2022-09-27T13:44:38;5.13;;;3.05;;
12798;SDS011;19250;42.646;26.980;2022-09-27T13:47:23;5.25;;;3.20;;
12798;SDS011;19250;42.646;26.980;2022-09-27T13:49:59;6.53;;;3.40;;
12798;SDS011;19250;42.646;26.980;2022-09-27T13:52:39;8.30;;;3.35;;
12798;SDS011;19250;42.646;26.980;2022-09-27T13:58:11;6.82;;;2.80;;
12798;SDS011;19250;42.646;26.980;2022-09-27T14:00:43;5.88;;;2.85;;
12798;SDS011;19250;42.646;26.980;2022-09-27T14:03:14;7.72;;;3.03;;
12798;SDS011;19250;42.646;26.980;2022-09-27T14:05:47;6.55;;;3.63;;
12798;SDS011;19250;42.646;26.980;2022-09-27T14:08:22;6.40;;;3.13;;
12798;SDS011;19250;42.646;26.980;2022-09-27T14:10:54;8.57;;;3.47;;
12798;SDS011;19250;42.646;26.980;2022-09-27T14:13:23;4.00;;;2.95;;
12798;SDS011;19250;42.646;26.980;2022-09-27T14:15:53;7.60;;;3.90;;
12798;SDS011;19250;42.646;26.980;2022-09-27T14:18:23;9.32;;;3.40;;
12798;SDS011;19250;42.646;26.980;2022-09-27T14:20:52;6.90;;;3.00;;
12798;SDS011;19250;42.646;26.980;2022-09-27T14:23:39;5.70;;;3.35;;
12798;SDS011;19250;42.646;26.980;2022-09-27T14:26:17;3.58;;;2.90;;
12798;SDS011;19250;42.646;26.980;2022-09-27T14:28:48;10.07;;;3.90;;
12798;SDS011;19250;42.646;26.980;2022-09-27T14:31:16;5.82;;;3.10;;
12798;SDS011;19250;42.646;26.980;2022-09-27T14:33:44;5.13;;;2.75;;
12798;SDS011;19250;42.646;26.980;2022-09-27T14:36:17;5.93;;;3.10;;
12798;SDS011;19250;42.646;26.980;2022-09-27T14:39:11;6.90;;;3.10;;
12798;SDS011;19250;42.646;26.980;2022-09-27T14:41:40;5.18;;;3.13;;
12798;SDS011;19250;42.646;26.980;2022-09-27T14:44:11;6.97;;;3.15;;
12798;SDS011;19250;42.646;26.980;2022-09-27T14:46:41;6.22;;;2.88;;
12798;SDS011;19250;42.646;26.980;2022-09-27T14:49:11;3.65;;;2.70;;
12798;SDS011;19250;42.646;26.980;2022-09-27T14:51:50;6.18;;;2.90;;
12798;SDS011;19250;42.646;26.980;2022-09-27T14:54:19;6.07;;;2.55;;
12798;SDS011;19250;42.646;26.980;2022-09-27T14:56:49;4.57;;;2.90;;
12798;SDS011;19250;42.646;26.980;2022-09-27T14:59:19;3.97;;;2.80;;
12798;SDS011;19250;42.646;26.980;2022-09-27T15:01:55;8.07;;;2.80;;
12798;SDS011;19250;42.646;26.980;2022-09-27T15:04:25;4.87;;;2.50;;
12798;SDS011;19250;42.646;26.980;2022-09-27T15:06:56;4.43;;;2.60;;
12798;SDS011;19250;42.646;26.980;2022-09-27T15:09:24;5.15;;;2.88;;
12798;SDS011;19250;42.646;26.980;2022-09-27T15:11:53;5.88;;;2.58;;
12798;SDS011;19250;42.646;26.980;2022-09-27T15:14:23;3.38;;;2.45;;
12798;SDS011;19250;42.646;26.980;2022-09-27T15:16:52;5.20;;;2.70;;
12798;SDS011;19250;42.646;26.980;2022-09-27T15:19:21;4.50;;;2.85;;
12798;SDS011;19250;42.646;26.980;2022-09-27T15:21:51;5.03;;;2.42;;
12798;SDS011;19250;42.646;26.980;2022-09-27T15:24:39;5.97;;;2.60;;
12798;SDS011;19250;42.646;26.980;2022-09-27T15:27:13;3.33;;;2.43;;
12798;SDS011;19250;42.646;26.980;2022-09-27T15:29:46;4.37;;;2.67;;
12798;SDS011;19250;42.646;26.980;2022-09-27T15:32:16;5.47;;;2.45;;
12798;SDS011;19250;42.646;26.980;2022-09-27T15:34:45;3.53;;;2.90;;